Ana Sayfa
METAR-TAF:

METAR-TAF

Havaalanları :

Tuscaloosa, Alabama, Amerika Birleşik Devletleri

Enlem: 33-12-43N, Boylam: 087-36-57W, yükseklik: 52 m

Güncel hava durumu gözlemi

Rapor saat 08:53 UTC de 30 dakika önce yapıldı.
Sakin rüzgar
Sıcaklık 21°C
Nem 100%
Basınç 1014 hPa
Görüş mesafesi: 16.1 km
Açık gökyüzü

METAR: KTCL 250853Z AUTO 00000KT 10SM CLR 21/21 A2994 RMK AO2 SLP134 T02110211 53003

Saat: 04:23 (09:23 UTC)

Tahmin

Rapor saat 05:41 UTC de 3 saat ve 42 dakika önce yapıldı.
Ayın 25'si saat 06 UTC'den ayın 26'si saat 06 UTC'ye kadar geçerli Tahmin
Rüzgar kuzeydan kt
Görüş mesafesi: 10 km
Açık gökyüzü
Ayın 25'si saat 1800 UTC'den
Rüzgar kuzey/kuzeybatıdan 6 kt
Görüş mesafesi: 10 km
5000 ft yükseklikte parçalı bulutlu
Ayın 26'si saat 0100 UTC'den
Rüzgar kuzeydan kt
Görüş mesafesi: 10 km
25000 ft yükseklikte az bulutlu

TAF: KTCL 250541Z 2506/2606 00000KT P6SM SKC FM251800 34006KT P6SM SCT050 FM260100 00000KT P6SM FEW250

4.000'den fazla havaalanı için hava durumu gözlemleri ve tahminleri (METAR ve TAF raporları).

Kullanılabilir istasyonlar harita üzerinde sarı ve kırmızı noktalarla gösterilir.

İstasyonun adını görmek için fareyi noktanın üzerinde gezdirin.

Sonrasında hava gözlem ve tahminlerini görmek için tıklayın.

Haritayı değiştirmek için: yaklaştırmak için siyah artı işaretli yeşil düğmeye ve uzaklaştırmak için de eksi işaretli düğmeye hızla tıklayın; bitişik haritalar için yeşil okları kullanın.


METAR-TAF: